Terminal Aerodrome Forecast
Issued by NWS

Home | Current Version | Previous Version | Text Only | Print | Product List | Glossary On
Versions: 1 2 3 4 5 6 7 8 9 10 11 12 13 14
609
FTUS45 KABQ 240522
TAFGUP
TAF
KGUP 240522Z 2406/2506 VRB05KT P6SM VCSH BKN110
      TEMPO 2406/2407 VRB10G20KT
     FM240700 VRB05KT P6SM SCT140
     FM241900 32010KT P6SM VCSH BKN100
     FM242300 33010KT P6SM VCTS BKN090CB
     FM250100 15010KT P6SM VCSH BKN100=

USA.gov is the U.S. government's official web portal to all federal, state and local government web resources and services.